Terminal Aerodrome Forecast
Issued by NWS Greer, SC

Home | Current Version | Previous Version | Text Only | Print | Product List | Glossary On
Versions: 1 2 3 4 5 6 7 8 9 10 11 12 13 14 15 16 17 18 19 20 21 22 23 24 25 26
000
FTUS42 KGSP 231723
TAFCLT
TAF
KCLT 231723Z 2318/2418 35011G16KT P6SM SKC
     FM240000 32004KT P6SM SKC
     FM241600 28003KT P6SM SCT160=

USA.gov is the U.S. government's official web portal to all federal, state and local government web resources and services.